createdAt,value
2022-09-12T00:01:36.898Z,10.35
2022-09-12T00:04:05.537Z,10.20
2022-09-12T00:06:37.012Z,10.23
2022-09-12T00:09:09.578Z,10.27
2022-09-12T00:11:39.016Z,10.28
2022-09-12T00:14:10.905Z,10.27
2022-09-12T00:16:40.496Z,10.28
2022-09-12T00:19:10.424Z,10.28
2022-09-12T00:21:40.897Z,10.29
2022-09-12T00:24:10.280Z,10.32
2022-09-12T00:26:38.939Z,10.19
2022-09-12T00:29:08.750Z,10.03
2022-09-12T00:31:37.079Z,10.01
2022-09-12T00:34:05.398Z,10.00
2022-09-12T00:36:33.669Z,9.93
2022-09-12T00:39:02.567Z,9.87
2022-09-12T00:41:35.000Z,9.83
2022-09-12T00:44:25.439Z,9.86
2022-09-12T00:47:01.081Z,9.82
2022-09-12T00:49:34.870Z,9.88
2022-09-12T00:52:09.516Z,9.95
2022-09-12T00:54:42.985Z,10.05
2022-09-12T00:57:15.964Z,10.13
2022-09-12T00:59:49.899Z,10.09
2022-09-12T01:02:20.289Z,10.10
2022-09-12T01:04:48.912Z,10.13
2022-09-12T01:07:17.759Z,10.15
2022-09-12T01:09:47.171Z,9.94
2022-09-12T01:12:16.941Z,9.86
2022-09-12T01:14:45.492Z,9.76
2022-09-12T01:17:16.812Z,9.66
2022-09-12T01:20:40.981Z,9.56
2022-09-12T01:23:56.863Z,9.52
2022-09-12T01:26:58.629Z,9.54
2022-09-12T01:30:25.319Z,9.42
2022-09-12T01:33:17.865Z,9.42
2022-09-12T01:35:59.645Z,9.36
2022-09-12T01:38:39.683Z,9.32
2022-09-12T01:41:25.518Z,9.22
2022-09-12T01:44:08.333Z,9.15
2022-09-12T01:46:45.458Z,9.10
2022-09-12T01:49:23.053Z,9.05
2022-09-12T01:51:59.999Z,9.04
2022-09-12T01:54:35.593Z,9.04
2022-09-12T01:57:12.117Z,9.08
2022-09-12T01:59:46.561Z,9.11
2022-09-12T02:02:19.966Z,9.09
2022-09-12T02:04:59.322Z,9.06
2022-09-12T02:07:36.012Z,9.03
2022-09-12T02:10:12.466Z,9.02
2022-09-12T02:12:48.767Z,8.98
2022-09-12T02:15:23.015Z,9.03
2022-09-12T02:17:54.909Z,9.10
2022-09-12T02:20:47.029Z,9.12
2022-09-12T02:23:23.545Z,9.14
2022-09-12T02:25:58.632Z,9.23
2022-09-12T02:28:33.067Z,9.32
2022-09-12T02:31:14.582Z,9.41
2022-09-12T02:33:54.583Z,9.48
2022-09-12T02:36:37.677Z,9.55
2022-09-12T02:39:06.024Z,9.59
2022-09-12T02:41:34.476Z,9.65
2022-09-12T02:44:04.076Z,9.67
2022-09-12T02:46:40.112Z,9.71
2022-09-12T02:49:09.491Z,9.69
2022-09-12T02:51:39.779Z,9.62
2022-09-12T02:54:09.293Z,9.58
2022-09-12T02:56:42.989Z,9.56
2022-09-12T02:59:17.105Z,9.53
2022-09-12T03:02:16.751Z,9.50
2022-09-12T03:05:23.988Z,9.45
2022-09-12T03:08:21.069Z,9.31
2022-09-12T03:11:39.957Z,9.16
2022-09-12T03:14:29.154Z,9.05
2022-09-12T03:17:08.774Z,8.99
2022-09-12T03:19:53.803Z,8.85
2022-09-12T03:22:33.100Z,8.87
2022-09-12T03:25:16.290Z,8.98
2022-09-12T03:27:50.815Z,8.92
2022-09-12T03:30:19.351Z,8.91
2022-09-12T03:32:49.767Z,8.96
2022-09-12T03:35:23.040Z,8.95
2022-09-12T03:37:53.353Z,8.99
2022-09-12T03:40:23.060Z,9.01
2022-09-12T03:42:52.035Z,9.09
2022-09-12T03:45:20.603Z,9.14
2022-09-12T03:47:49.374Z,9.13
2022-09-12T03:50:17.842Z,9.13
2022-09-12T03:52:46.065Z,9.15
2022-09-12T03:55:14.289Z,9.22
2022-09-12T03:57:44.133Z,9.25
2022-09-12T04:00:19.068Z,9.22
2022-09-12T04:02:48.410Z,9.23
2022-09-12T04:05:16.910Z,9.18
2022-09-12T04:07:45.118Z,9.15
2022-09-12T04:10:16.067Z,9.07
2022-09-12T04:12:46.393Z,9.05
2022-09-12T04:15:14.907Z,9.14
2022-09-12T04:17:43.609Z,9.08
2022-09-12T04:20:12.225Z,8.96
2022-09-12T04:22:40.462Z,8.97
2022-09-12T04:25:10.443Z,8.99
2022-09-12T04:27:38.727Z,9.00
2022-09-12T04:30:10.371Z,8.98
2022-09-12T04:32:38.879Z,9.01
2022-09-12T04:35:07.668Z,9.01
2022-09-12T04:37:36.345Z,8.89
2022-09-12T04:40:05.626Z,8.83
2022-09-12T04:42:34.006Z,8.80
2022-09-12T04:45:03.608Z,8.81
2022-09-12T04:47:33.423Z,8.87
2022-09-12T04:50:01.681Z,8.81
2022-09-12T04:52:30.007Z,8.81
2022-09-12T04:54:58.219Z,8.80
2022-09-12T04:57:26.535Z,8.83
2022-09-12T04:59:54.729Z,8.85
2022-09-12T05:02:23.126Z,8.84
2022-09-12T05:04:54.297Z,8.88
2022-09-12T05:07:22.859Z,8.88
2022-09-12T05:09:51.435Z,8.86
2022-09-12T05:12:19.690Z,8.91
2022-09-12T05:14:47.966Z,8.96
2022-09-12T05:17:16.209Z,8.99
2022-09-12T05:19:44.496Z,9.05
2022-09-12T05:22:14.089Z,8.94
2022-09-12T05:24:47.300Z,9.02
2022-09-12T05:27:18.159Z,9.05
2022-09-12T05:29:46.480Z,9.11
2022-09-12T05:32:15.045Z,9.13
2022-09-12T05:34:43.298Z,9.18
2022-09-12T05:37:13.050Z,9.32
2022-09-12T05:39:41.360Z,9.38
2022-09-12T05:42:09.883Z,9.51
2022-09-12T05:44:38.067Z,9.60
2022-09-12T05:47:06.784Z,9.60
2022-09-12T05:49:37.167Z,9.77
2022-09-12T05:52:05.483Z,9.95
2022-09-12T05:54:35.089Z,10.07
2022-09-12T05:57:03.678Z,10.20
2022-09-12T05:59:32.054Z,10.49
2022-09-12T06:02:00.417Z,10.61
2022-09-12T06:04:29.269Z,10.82
2022-09-12T06:06:57.946Z,11.17
2022-09-12T06:09:26.411Z,11.53
2022-09-12T06:11:56.148Z,11.87
2022-09-12T06:14:24.374Z,12.51
2022-09-12T06:16:52.929Z,12.94
2022-09-12T06:19:25.074Z,13.08
2022-09-12T06:21:53.620Z,13.07
2022-09-12T06:24:22.665Z,12.88
2022-09-12T06:26:53.043Z,12.97
2022-09-12T06:29:22.658Z,12.86
2022-09-12T06:31:50.992Z,12.86
2022-09-12T06:34:19.983Z,13.01
2022-09-12T06:36:50.084Z,12.64
2022-09-12T06:39:21.468Z,12.17
2022-09-12T06:41:51.096Z,12.27
2022-09-12T06:44:23.547Z,12.28
2022-09-12T06:46:53.659Z,12.37
2022-09-12T06:49:21.911Z,12.64
2022-09-12T06:51:50.148Z,13.03
2022-09-12T06:54:19.999Z,13.94
2022-09-12T06:56:48.271Z,14.12
2022-09-12T06:59:16.572Z,14.11
2022-09-12T07:01:46.248Z,13.53
2022-09-12T07:04:14.489Z,13.01
2022-09-12T07:06:44.889Z,12.80
2022-09-12T07:09:17.362Z,12.98
2022-09-12T07:11:47.306Z,13.08
2022-09-12T07:14:16.870Z,13.61
2022-09-12T07:16:46.531Z,13.78
2022-09-12T07:19:15.089Z,13.84
2022-09-12T07:21:43.652Z,13.86
2022-09-12T07:24:12.140Z,14.09
2022-09-12T07:26:42.247Z,14.19
2022-09-12T07:32:08.029Z,13.88
2022-09-12T07:34:37.364Z,13.82
2022-09-12T07:37:05.971Z,13.91
2022-09-12T07:39:34.278Z,14.09
2022-09-12T07:42:02.905Z,14.02
2022-09-12T07:44:31.189Z,13.91
2022-09-12T07:46:59.787Z,14.58
2022-09-12T07:49:30.492Z,14.54
2022-09-12T07:51:58.730Z,14.12
2022-09-12T07:54:26.963Z,14.84
2022-09-12T07:56:55.406Z,15.19
2022-09-12T07:59:48.464Z,15.33
2022-09-12T08:02:17.026Z,15.65
2022-09-12T08:04:48.723Z,15.44
2022-09-12T08:07:19.364Z,15.39
2022-09-12T08:09:47.708Z,15.85
2022-09-12T08:12:17.785Z,17.13
2022-09-12T08:14:45.960Z,17.90
2022-09-12T08:17:14.429Z,17.60
2022-09-12T08:19:42.714Z,17.22
2022-09-12T08:22:12.422Z,17.23
2022-09-12T08:24:40.740Z,16.98
2022-09-12T08:27:09.545Z,17.35
2022-09-12T08:29:37.799Z,17.85
2022-09-12T08:32:06.500Z,19.11
2022-09-12T08:34:35.110Z,18.43
2022-09-12T08:37:04.087Z,18.57
2022-09-12T08:39:33.935Z,19.19
2022-09-12T08:42:05.089Z,18.90
2022-09-12T08:45:07.300Z,19.48
2022-09-12T08:47:41.045Z,19.57
2022-09-12T08:50:17.773Z,20.95
2022-09-12T08:52:58.498Z,21.52
2022-09-12T08:55:36.118Z,22.23
2022-09-12T08:58:16.158Z,22.49
2022-09-12T09:00:59.392Z,22.41
2022-09-12T09:04:20.622Z,22.29
2022-09-12T09:07:25.969Z,23.20
2022-09-12T09:10:17.388Z,23.46
2022-09-12T09:13:01.930Z,22.83
2022-09-12T09:15:45.641Z,23.52
2022-09-12T09:18:22.715Z,23.40
2022-09-12T09:20:57.220Z,23.83
2022-09-12T09:23:31.003Z,24.18
2022-09-12T09:26:07.119Z,24.52
2022-09-12T09:28:45.916Z,25.09
2022-09-12T09:31:17.721Z,24.56
2022-09-12T09:33:51.101Z,23.69
2022-09-12T09:36:25.193Z,24.15
2022-09-12T09:39:05.818Z,24.38
2022-09-12T09:41:55.962Z,24.83
2022-09-12T09:44:25.826Z,25.13
2022-09-12T09:46:59.221Z,25.55
2022-09-12T09:49:31.340Z,25.67
2022-09-12T09:52:01.828Z,25.59
2022-09-12T09:54:38.707Z,25.48
2022-09-12T09:57:37.842Z,25.53
2022-09-12T10:03:12.608Z,25.69
2022-09-12T10:05:48.985Z,25.87
2022-09-12T10:08:27.417Z,26.77
2022-09-12T10:11:03.356Z,26.46
2022-09-12T10:13:40.583Z,26.37
2022-09-12T10:16:20.910Z,26.53
2022-09-12T10:18:53.117Z,26.30
2022-09-12T10:21:30.650Z,27.22
2022-09-12T10:24:15.845Z,27.27
2022-09-12T10:26:56.395Z,27.31
2022-09-12T10:29:31.473Z,27.88
2022-09-12T10:32:04.654Z,27.89
2022-09-12T10:34:40.076Z,27.91
2022-09-12T10:37:11.954Z,27.50
2022-09-12T10:39:40.763Z,27.72
2022-09-12T10:42:15.556Z,27.27
2022-09-12T10:44:55.667Z,27.16
2022-09-12T10:47:29.259Z,27.37
2022-09-12T10:50:26.210Z,27.63
2022-09-12T10:52:55.401Z,26.80
2022-09-12T10:55:33.826Z,26.40
2022-09-12T10:58:23.949Z,27.35
2022-09-12T11:01:00.677Z,27.69
2022-09-12T11:04:01.469Z,27.25
2022-09-12T11:06:40.904Z,26.32
2022-09-12T11:09:24.113Z,26.89
2022-09-12T11:12:09.799Z,27.01
2022-09-12T11:14:57.451Z,27.29
2022-09-12T11:17:43.901Z,27.04
2022-09-12T11:20:51.784Z,27.73
2022-09-12T11:24:05.964Z,27.55
2022-09-12T11:26:56.744Z,27.47
2022-09-12T11:29:48.339Z,28.05
2022-09-12T11:32:50.810Z,27.29
2022-09-12T11:35:25.877Z,27.12
2022-09-12T11:38:26.721Z,27.41
2022-09-12T11:41:01.790Z,27.89
2022-09-12T11:43:41.604Z,28.41
2022-09-12T11:46:20.750Z,28.37
2022-09-12T11:48:59.039Z,28.70
2022-09-12T11:51:36.627Z,28.76
2022-09-12T11:54:17.076Z,28.66
2022-09-12T11:56:54.892Z,28.32
2022-09-12T11:59:41.311Z,28.28
2022-09-12T12:02:19.331Z,28.50
2022-09-12T12:05:04.980Z,28.32
2022-09-12T12:07:45.664Z,27.86
2022-09-12T12:10:33.512Z,26.98
2022-09-12T12:13:13.887Z,27.13
2022-09-12T12:15:49.665Z,27.03
2022-09-12T12:18:23.649Z,27.59
2022-09-12T12:20:53.119Z,26.87
2022-09-12T12:23:28.545Z,26.69
2022-09-12T12:25:58.911Z,26.14
2022-09-12T12:29:02.516Z,25.86
2022-09-12T12:31:30.834Z,26.31
2022-09-12T12:34:27.478Z,26.03
2022-09-12T12:36:55.768Z,25.60
2022-09-12T12:40:05.604Z,24.53
2022-09-12T12:43:31.977Z,24.85
2022-09-12T12:46:14.202Z,25.06
2022-09-12T12:49:05.266Z,25.67
2022-09-12T12:51:50.331Z,24.96
2022-09-12T12:54:54.625Z,24.64
2022-09-12T12:57:49.364Z,25.09
2022-09-12T13:00:35.852Z,25.13
2022-09-12T13:03:25.807Z,25.04
2022-09-12T13:06:03.272Z,24.79
2022-09-12T13:08:34.591Z,25.57
2022-09-12T13:11:09.472Z,25.82
2022-09-12T13:13:48.521Z,25.59
2022-09-12T13:16:32.932Z,25.47
2022-09-12T13:19:09.253Z,25.32
2022-09-12T13:21:38.340Z,25.46
2022-09-12T13:24:17.176Z,25.71
2022-09-12T13:26:46.942Z,24.86
2022-09-12T13:29:18.655Z,24.43
2022-09-12T13:31:52.704Z,24.21
2022-09-12T13:34:27.868Z,24.15
2022-09-12T13:37:19.004Z,24.29
2022-09-12T13:39:50.519Z,24.53
2022-09-12T13:42:49.633Z,24.46
2022-09-12T13:45:23.399Z,23.93
2022-09-12T13:47:58.850Z,23.88
2022-09-12T13:50:33.379Z,23.32
2022-09-12T13:53:07.198Z,23.28
2022-09-12T13:55:39.830Z,23.15
2022-09-12T13:58:18.183Z,23.11
2022-09-12T14:00:46.590Z,23.53
2022-09-12T14:03:46.913Z,23.23
2022-09-12T14:06:19.097Z,23.58
2022-09-12T14:08:48.934Z,24.08
2022-09-12T14:11:27.184Z,23.68
2022-09-12T14:13:57.069Z,23.30
2022-09-12T14:16:29.035Z,23.49
2022-09-12T14:18:58.963Z,23.29
2022-09-12T14:21:38.505Z,23.66
2022-09-12T14:24:10.015Z,23.78
2022-09-12T14:26:41.185Z,23.72
2022-09-12T14:29:12.705Z,24.18
2022-09-12T14:31:41.372Z,24.49
2022-09-12T14:34:14.738Z,24.13
2022-09-12T14:36:51.327Z,23.97
2022-09-12T14:39:30.412Z,23.85
2022-09-12T14:42:12.991Z,23.89
2022-09-12T14:44:44.123Z,23.67
2022-09-12T14:47:19.635Z,23.66
2022-09-12T14:49:50.113Z,24.08
2022-09-12T14:52:28.757Z,23.84
2022-09-12T14:54:59.526Z,23.42
2022-09-12T14:57:42.328Z,23.11
2022-09-12T15:00:23.973Z,22.67
2022-09-12T15:02:53.618Z,23.18
2022-09-12T15:05:28.838Z,23.16
2022-09-12T15:08:02.900Z,22.39
2022-09-12T15:10:36.322Z,21.74
2022-09-12T15:13:30.924Z,21.65
2022-09-12T15:16:00.658Z,21.76
2022-09-12T15:18:30.550Z,21.85
2022-09-12T15:21:06.004Z,21.78
2022-09-12T15:23:42.824Z,21.47
2022-09-12T15:26:14.859Z,21.46
2022-09-12T15:28:43.322Z,21.54
2022-09-12T15:31:24.534Z,21.74
2022-09-12T15:33:52.973Z,22.00
2022-09-12T15:36:23.545Z,22.24
2022-09-12T15:38:54.208Z,22.14
2022-09-12T15:41:26.270Z,22.15
2022-09-12T15:43:54.517Z,22.21
2022-09-12T15:46:22.720Z,22.24
2022-09-12T15:48:51.181Z,22.14
2022-09-12T15:51:22.792Z,21.81
2022-09-12T15:53:53.573Z,21.78
2022-09-12T15:56:23.615Z,21.57
2022-09-12T15:58:59.092Z,21.46
2022-09-12T16:01:29.744Z,21.50
2022-09-12T16:03:58.253Z,21.39
2022-09-12T16:06:27.643Z,21.15
2022-09-12T16:08:57.276Z,21.01
2022-09-12T16:11:28.348Z,20.85
2022-09-12T16:13:58.137Z,20.90
2022-09-12T16:16:26.588Z,20.84
2022-09-12T16:18:54.881Z,20.80
2022-09-12T16:21:23.169Z,20.61
2022-09-12T16:23:52.226Z,20.46
2022-09-12T16:26:22.137Z,20.26
2022-09-12T16:28:56.906Z,20.03
2022-09-12T16:31:25.513Z,19.89
2022-09-12T16:33:54.708Z,19.75
2022-09-12T16:36:24.175Z,19.56
2022-09-12T16:38:55.293Z,19.35
2022-09-12T16:41:26.647Z,19.11
2022-09-12T16:43:55.925Z,19.00
2022-09-12T16:46:28.594Z,18.79
2022-09-12T16:48:59.158Z,18.61
2022-09-12T16:51:31.859Z,18.38
2022-09-12T16:54:00.403Z,18.17
2022-09-12T16:56:30.646Z,17.98
2022-09-12T16:58:58.903Z,17.86
2022-09-12T17:01:27.917Z,17.76
2022-09-12T17:03:59.308Z,17.68
2022-09-12T17:06:28.919Z,17.54
2022-09-12T17:09:03.493Z,17.33
2022-09-12T17:11:36.337Z,17.23
2022-09-12T17:14:07.776Z,16.99
2022-09-12T17:16:38.874Z,16.86
2022-09-12T17:19:08.183Z,16.74
2022-09-12T17:21:37.010Z,16.56
2022-09-12T17:24:05.542Z,16.44
2022-09-12T17:26:35.262Z,16.27
2022-09-12T17:29:03.769Z,16.11
2022-09-12T17:31:33.088Z,15.94
2022-09-12T17:34:03.136Z,15.85
2022-09-12T17:36:32.918Z,15.75
2022-09-12T17:39:03.528Z,15.65
2022-09-12T17:41:34.528Z,15.63
2022-09-12T17:44:03.714Z,15.52
2022-09-12T17:46:35.808Z,15.45
2022-09-12T17:49:07.554Z,15.35
2022-09-12T17:51:37.007Z,15.24
2022-09-12T17:54:08.444Z,15.15
2022-09-12T17:56:38.754Z,15.11
2022-09-12T17:59:09.142Z,15.07
2022-09-12T18:01:54.941Z,15.03
2022-09-12T18:04:23.212Z,14.94
2022-09-12T18:06:51.537Z,14.84
2022-09-12T18:09:24.887Z,14.76
2022-09-12T18:11:54.997Z,14.73
2022-09-12T18:14:23.823Z,14.70
2022-09-12T18:16:52.552Z,14.61
2022-09-12T18:19:20.953Z,14.56
2022-09-12T18:21:49.145Z,14.56
2022-09-12T18:24:17.621Z,14.54
2022-09-12T18:26:46.223Z,14.55
2022-09-12T18:29:16.879Z,14.51
2022-09-12T18:31:46.713Z,14.45
2022-09-12T18:34:16.185Z,14.41
2022-09-12T18:36:47.397Z,14.36
2022-09-12T18:39:16.555Z,14.29
2022-09-12T18:41:45.532Z,14.25
2022-09-12T18:44:15.506Z,14.23
2022-09-12T18:46:43.867Z,14.21
2022-09-12T18:49:12.386Z,14.21
2022-09-12T18:51:41.939Z,14.19
2022-09-12T18:54:14.631Z,14.17
2022-09-12T18:56:44.138Z,14.13
2022-09-12T18:59:14.868Z,14.10
2022-09-12T19:01:45.030Z,14.09
2022-09-12T19:04:16.482Z,14.06
2022-09-12T19:06:47.348Z,14.02
2022-09-12T19:09:17.692Z,14.02
2022-09-12T19:11:49.936Z,14.03
2022-09-12T19:14:22.600Z,14.01
2022-09-12T19:16:52.660Z,13.99
2022-09-12T19:19:21.338Z,13.98
2022-09-12T19:21:49.704Z,13.99
2022-09-12T19:24:18.441Z,14.02
2022-09-12T19:26:47.127Z,14.03
2022-09-12T19:29:16.695Z,14.01
2022-09-12T19:31:45.997Z,13.94
2022-09-12T19:34:16.407Z,13.91
2022-09-12T19:36:46.683Z,13.82
2022-09-12T19:39:17.183Z,13.82
2022-09-12T19:41:46.508Z,13.80
2022-09-12T19:44:15.112Z,13.76
2022-09-12T19:46:43.523Z,13.69
2022-09-12T19:49:13.250Z,13.67
2022-09-12T19:51:43.926Z,13.65
2022-09-12T19:54:12.450Z,13.64
2022-09-12T19:56:40.842Z,13.56
2022-09-12T19:59:09.787Z,13.52
2022-09-12T20:01:38.525Z,13.51
2022-09-12T20:04:07.631Z,13.49
2022-09-12T20:06:36.760Z,13.52
2022-09-12T20:09:06.777Z,13.47
2022-09-12T20:11:35.437Z,13.46
2022-09-12T20:14:03.934Z,13.44
2022-09-12T20:16:33.435Z,13.44
2022-09-12T20:19:06.887Z,13.38
2022-09-12T20:21:36.804Z,13.36
2022-09-12T20:24:10.643Z,13.33
2022-09-12T20:26:39.752Z,13.33
2022-09-12T20:29:09.212Z,13.36
2022-09-12T20:31:39.509Z,13.36
2022-09-12T20:34:09.262Z,13.36
2022-09-12T20:36:37.628Z,13.31
2022-09-12T20:39:07.467Z,13.30
2022-09-12T20:41:36.707Z,13.27
2022-09-12T20:44:05.180Z,13.20
2022-09-12T20:46:33.614Z,13.19
2022-09-12T20:49:02.273Z,13.17
2022-09-12T20:51:31.197Z,13.15
2022-09-12T20:54:03.247Z,13.14
2022-09-12T20:56:36.501Z,13.13
2022-09-12T20:59:06.279Z,13.07
2022-09-12T21:01:34.791Z,13.08
2022-09-12T21:04:03.836Z,13.07
2022-09-12T21:06:32.678Z,13.05
2022-09-12T21:09:01.071Z,13.01
2022-09-12T21:11:30.406Z,12.99
2022-09-12T21:14:00.122Z,12.98
2022-09-12T21:16:28.920Z,12.90
2022-09-12T21:18:59.838Z,12.85
2022-09-12T21:21:28.591Z,12.85
2022-09-12T21:23:59.796Z,12.81
2022-09-12T21:26:28.454Z,12.82
2022-09-12T21:28:57.451Z,12.78
2022-09-12T21:31:28.020Z,12.77
2022-09-12T21:33:56.453Z,12.72
2022-09-12T21:36:25.976Z,12.71
2022-09-12T21:38:54.249Z,12.74
2022-09-12T21:41:22.552Z,12.70
2022-09-12T21:43:51.305Z,12.63
2022-09-12T21:46:19.620Z,12.54
2022-09-12T21:48:49.318Z,12.50
2022-09-12T21:51:18.111Z,12.53
2022-09-12T21:53:46.473Z,12.53
2022-09-12T21:56:14.787Z,12.52
2022-09-12T21:58:43.197Z,12.62
2022-09-12T22:01:13.498Z,12.64
2022-09-12T22:03:44.700Z,12.73
2022-09-12T22:06:16.387Z,12.63
2022-09-12T22:08:45.996Z,12.60
2022-09-12T22:11:14.267Z,12.58
2022-09-12T22:13:43.871Z,12.52
2022-09-12T22:16:13.063Z,12.46
2022-09-12T22:18:41.778Z,12.49
2022-09-12T22:21:15.603Z,12.54
2022-09-12T22:24:01.286Z,12.70
2022-09-12T22:26:30.970Z,12.70
2022-09-12T22:28:59.302Z,12.63
2022-09-12T22:31:28.194Z,12.64
2022-09-12T22:33:57.338Z,12.68
2022-09-12T22:36:30.957Z,12.58
2022-09-12T22:38:59.646Z,12.43
2022-09-12T22:41:28.507Z,12.38
2022-09-12T22:43:57.607Z,12.35
2022-09-12T22:46:26.332Z,12.37
2022-09-12T22:48:55.670Z,12.43
2022-09-12T22:51:24.046Z,12.42
2022-09-12T22:53:53.782Z,12.29
2022-09-12T22:56:22.545Z,12.32
2022-09-12T22:58:50.978Z,12.36
2022-09-12T23:01:20.082Z,12.33
2022-09-12T23:03:48.730Z,12.26
2022-09-12T23:06:17.913Z,12.20
2022-09-12T23:08:46.509Z,12.13
2022-09-12T23:11:19.176Z,12.15
2022-09-12T23:13:49.636Z,12.23
2022-09-12T23:16:21.509Z,12.33
2022-09-12T23:18:50.340Z,12.48
2022-09-12T23:21:21.454Z,12.47
2022-09-12T23:23:50.378Z,12.29
2022-09-12T23:26:23.693Z,12.13
2022-09-12T23:28:54.444Z,12.00
2022-09-12T23:31:24.386Z,11.88
2022-09-12T23:33:54.643Z,11.75
2022-09-12T23:36:24.192Z,11.62
2022-09-12T23:38:52.937Z,11.56
2022-09-12T23:41:23.535Z,11.49
2022-09-12T23:43:51.940Z,11.41
2022-09-12T23:46:22.059Z,11.31
2022-09-12T23:48:53.172Z,11.27
2022-09-12T23:51:22.756Z,11.28
2022-09-12T23:53:51.210Z,11.23
2022-09-12T23:56:19.434Z,11.26
2022-09-12T23:58:49.119Z,11.34
